Time;durP1;ratioP1;P1;durP2;ratioP2;P2;SDS_P1;SDS_P2;PMS_P1;PMS_P2;Temp;Humidity;BMP_temperature;BMP_pressure;BME280_temperature;BME280_humidity;BME280_pressure;Samples;Min_cycle;Max_cycle;Signal;HPM_P1;HPM_P2
2022/04/16 00:00:27;;;;;;;;;18.00;17.50;;;;;12.45;76.48;99744.84;6279659;20;2823198;-50
2022/04/16 00:02:55;;;;;;;;;25.00;21.50;;;;;12.32;77.15;99743.06;6278912;20;2500388;-51
2022/04/16 00:05:24;;;;;;;;;16.00;13.67;;;;;12.35;76.43;99735.66;6280387;20;3542296;-52
2022/04/16 00:08:07;;;;;;;;;14.50;14.50;;;;;12.39;75.96;99750.63;6310391;20;2799282;-53
2022/04/16 00:10:39;;;;;;;;;14.67;14.33;;;;;12.40;75.97;99740.69;6278619;20;3521103;-51
2022/04/16 00:13:08;;;;;;;;;17.33;16.00;;;;;12.30;75.77;99740.50;6310050;20;3560790;-52
2022/04/16 00:15:38;;;;;;;;;16.00;13.33;;;;;12.40;76.21;99752.38;6309722;20;3548154;-54
2022/04/16 00:18:07;;;;;;;;;17.67;15.67;;;;;12.29;76.04;99749.50;6278648;20;3537752;-54
2022/04/16 00:20:41;;;;;;;;;11.00;11.00;;;;;12.27;75.73;99746.94;6315266;20;1959650;-54
2022/04/16 00:23:09;;;;;;;;;14.00;10.00;;;;;12.32;75.62;99749.31;6279110;20;2786769;-54
2022/04/16 00:25:38;;;;;;;;;10.80;10.40;;;;;12.39;75.37;99749.75;6306237;20;2791006;-53
2022/04/16 00:28:08;;;;;;;;;11.20;9.60;;;;;12.26;75.49;99744.34;6310028;20;2781693;-54
2022/04/16 00:30:40;;;;;;;;;8.00;8.00;;;;;12.12;75.98;99747.13;6280927;20;2754426;-53
2022/04/16 00:33:14;;;;;;;;;9.00;9.00;;;;;12.23;75.60;99748.09;6278434;20;2755587;-52
2022/04/16 00:35:42;;;;;;;;;9.50;8.00;;;;;12.26;75.28;99744.34;6285716;20;2760831;-53
2022/04/16 00:38:11;;;;;;;;;8.00;6.00;;;;;12.24;75.48;99746.25;6281721;20;2743067;-53
2022/04/16 00:40:39;;;;;;;;;8.00;8.00;;;;;12.20;75.56;99744.75;6284935;20;2731730;-50
2022/04/16 00:43:20;;;;;;;;;7.00;7.00;;;;;12.16;75.59;99744.09;6311431;20;2736731;-54
2022/04/16 00:45:49;;;;;;;;;12.00;9.00;;;;;12.19;75.72;99738.53;6315231;20;2777368;-53
2022/04/16 00:48:22;;;;;;;;;7.14;7.00;;;;;12.10;75.71;99728.38;6329691;20;3454538;-52
2022/04/16 00:50:53;;;;;;;;;10.00;9.00;;;;;12.16;75.63;99727.94;6319806;20;2756528;-53
2022/04/16 00:53:25;;;;;;;;;8.50;8.50;;;;;12.03;76.12;99727.94;6280438;20;2740051;-52
2022/04/16 00:55:53;;;;;;;;;5.00;5.00;;;;;11.75;77.43;99723.47;6287044;20;2744092;-54
2022/04/16 00:58:21;;;;;;;;;14.00;9.00;;;;;11.72;78.11;99718.31;6284149;20;2764601;-52
2022/04/16 01:00:49;;;;;;;;;4.67;4.67;;;;;11.49;78.93;99733.25;6290485;20;3440923;-54
2022/04/16 01:03:19;;;;;;;;;11.60;9.40;;;;;11.53;79.20;99729.41;6309495;20;2764868;-53
2022/04/16 01:05:47;;;;;;;;;15.00;9.50;;;;;11.39;79.96;99732.97;6291511;20;2773176;-54
2022/04/16 01:08:19;;;;;;;;;8.00;8.00;;;;;11.32;80.24;99734.34;6284849;20;2760693;-55
2022/04/16 01:10:47;;;;;;;;;10.00;9.50;;;;;11.15;81.16;99740.75;6283102;20;2782542;-55
2022/04/16 01:13:15;;;;;;;;;13.00;10.00;;;;;11.15;81.25;99739.91;6283946;20;2789882;-55
2022/04/16 01:15:46;;;;;;;;;12.40;10.20;;;;;10.94;82.62;99731.38;6309734;20;2794018;-54
2022/04/16 01:18:16;;;;;;;;;9.80;9.60;;;;;10.78;83.33;99731.47;6308980;20;2781538;-55
2022/04/16 01:20:46;;;;;;;;;12.60;10.60;;;;;10.88;82.12;99721.03;6305896;20;2789857;-53
2022/04/16 01:23:16;;;;;;;;;12.00;12.00;;;;;10.63;84.92;99722.50;6306479;20;2791915;-53
2022/04/16 01:25:44;;;;;;;;;11.50;8.50;;;;;10.87;83.47;99725.50;6287599;20;2767088;-52
2022/04/16 01:28:12;;;;;;;;;9.50;9.50;;;;;10.89;83.30;99725.41;6286964;20;2769003;-54
2022/04/16 01:30:42;;;;;;;;;13.60;10.00;;;;;11.18;80.98;99724.44;6307208;20;2786714;-54
2022/04/16 01:33:10;;;;;;;;;15.00;11.50;;;;;11.11;81.32;99722.25;6290063;20;2789879;-54
2022/04/16 01:35:39;;;;;;;;;12.67;12.67;;;;;11.28;80.11;99723.88;6283240;20;2791929;-54
2022/04/16 01:38:08;;;;;;;;;10.00;10.00;;;;;11.15;80.85;99730.03;6314937;20;2773225;-52
2022/04/16 01:40:36;;;;;;;;;14.00;10.00;;;;;11.20;80.41;99717.16;6313809;20;2789830;-53
2022/04/16 01:43:04;;;;;;;;;12.00;12.00;;;;;11.14;79.80;99722.94;6280699;20;2806543;-53
2022/04/16 01:45:33;;;;;;;;;20.00;16.00;;;;;10.87;81.24;99714.75;6287833;20;2825283;-52
2022/04/16 01:48:02;;;;;;;;;15.00;14.50;;;;;10.90;81.44;99717.28;6284126;20;2795070;-54
2022/04/16 01:50:31;;;;;;;;;17.00;13.00;;;;;10.79;81.46;99721.56;6279398;20;3544012;-53
2022/04/16 01:52:59;;;;;;;;;11.00;11.00;;;;;10.70;82.32;99713.13;6314065;20;2789973;-56
2022/04/16 01:55:29;;;;;;;;;10.60;9.80;;;;;10.72;82.34;99721.09;6311127;20;2774273;-56
2022/04/16 01:57:58;;;;;;;;;16.33;16.33;;;;;10.45;83.54;99716.47;6282170;20;3564826;-52
2022/04/16 02:00:27;;;;;;;;;17.33;16.00;;;;;10.55;83.10;99717.59;6311533;20;3536211;-51
2022/04/16 02:02:57;;;;;;;;;16.00;12.00;;;;;10.43;83.83;99721.06;6315718;20;2796206;-52
2022/04/16 02:05:25;;;;;;;;;19.00;19.00;;;;;10.41;83.48;99711.38;6286215;20;2833576;-54
2022/04/16 02:07:55;;;;;;;;;12.00;12.00;;;;;10.55;83.62;99722.97;6306786;20;2808609;-54
2022/04/16 02:10:24;;;;;;;;;17.67;17.00;;;;;10.52;83.54;99719.63;6281745;20;3553358;-55
2022/04/16 02:12:52;;;;;;;;;21.33;18.00;;;;;10.48;83.69;99712.72;6311056;20;3557579;-53
2022/04/16 02:15:21;;;;;;;;;19.00;19.00;;;;;10.39;84.16;99711.44;6283468;20;3562756;-52
2022/04/16 02:17:49;;;;;;;;;21.00;16.50;;;;;10.23;84.98;99703.44;6310534;20;2492134;-53
2022/04/16 02:20:17;;;;;;;;;19.50;19.00;;;;;9.98;86.47;99704.03;6282078;20;2829355;-54
2022/04/16 02:22:49;;;;;;;;;23.50;22.00;;;;;9.86;87.46;99700.25;6281278;20;2494123;-51
2022/04/16 02:25:18;;;;;;;;;17.00;16.00;;;;;9.88;86.39;99702.84;6280360;20;3535024;-48
2022/04/16 02:27:47;;;;;;;;;17.00;15.50;;;;;9.58;86.52;99702.78;6315170;20;2825323;-51
2022/04/16 02:30:18;;;;;;;;;21.00;16.67;;;;;9.17;89.00;99700.63;6281767;20;3563754;-55
2022/04/16 02:32:53;;;;;;;;;15.33;15.00;;;;;9.17;89.74;99695.28;6310471;20;3523163;-52
2022/04/16 02:35:23;;;;;;;;;15.67;13.00;;;;;9.02;90.74;99702.34;6310774;20;3534626;-53
2022/04/16 02:37:51;;;;;;;;;16.33;15.33;;;;;9.16;89.69;99704.25;6279660;20;3559838;-54
2022/04/16 02:40:20;;;;;;;;;11.67;11.67;;;;;9.02;90.49;99707.69;6309293;20;2809716;-53
2022/04/16 02:42:49;;;;;;;;;18.00;15.00;;;;;9.02;90.38;99703.19;6315306;20;3548581;-52
2022/04/16 02:48:05;;;;;;;;;17.00;17.00;;;;;9.52;87.67;99697.78;6281423;20;3561771;-52
2022/04/16 02:50:34;;;;;;;;;22.67;19.00;;;;;9.62;86.59;99690.94;6280803;20;3559622;-52
2022/04/16 02:53:03;;;;;;;;;17.00;14.00;;;;;9.69;86.82;99695.00;6278929;20;2801998;-56
2022/04/16 02:55:32;;;;;;;;;28.50;24.00;;;;;9.78;86.19;99686.41;6313996;20;2847162;-53
2022/04/16 02:58:00;;;;;;;;;20.50;20.50;;;;;9.63;86.71;99684.63;6281046;20;2498338;-56
2022/04/16 03:00:28;;;;;;;;;23.50;17.50;;;;;9.66;86.29;99692.47;6278210;20;2487887;-54
2022/04/16 03:02:57;;;;;;;;;25.50;22.00;;;;;9.63;86.27;99689.97;6281543;20;2839973;-52
2022/04/16 03:05:26;;;;;;;;;29.00;23.50;;;;;9.69;86.29;99692.34;6280110;20;2839864;-50
2022/04/16 03:07:54;;;;;;;;;18.00;16.00;;;;;9.12;86.75;99687.50;6283314;20;2835671;-55
2022/04/16 03:10:23;;;;;;;;;23.00;19.00;;;;;9.14;88.51;99687.44;6279530;20;2500265;-53
2022/04/16 03:12:53;;;;;;;;;27.50;22.00;;;;;9.28;88.38;99684.81;6282895;20;2850393;-52
2022/04/16 03:18:10;;;;;;;;;29.50;26.00;;;;;9.38;87.71;99682.50;6278198;20;2500248;-53
2022/04/16 03:20:42;;;;;;;;;23.00;23.00;;;;;9.33;87.85;99685.44;6276681;20;2500245;-53
2022/04/16 03:23:11;;;;;;;;;20.50;17.50;;;;;9.21;88.30;99691.47;6282706;20;2823397;-53
2022/04/16 03:25:41;;;;;;;;;29.50;26.00;;;;;8.86;89.76;99691.59;6280595;20;2855456;-54
2022/04/16 03:28:10;;;;;;;;;31.00;25.00;;;;;9.30;88.77;99687.44;6281090;20;2843585;-52
2022/04/16 03:30:39;;;;;;;;;28.50;26.00;;;;;9.20;88.53;99695.97;6278527;20;2839969;-54
2022/04/16 03:33:08;;;;;;;;;29.00;25.50;;;;;9.15;88.88;99698.03;6277215;20;2500272;-54
2022/04/16 03:35:37;;;;;;;;;29.00;26.00;;;;;9.23;88.28;99694.94;6281348;20;2725333;-51
2022/04/16 03:38:06;;;;;;;;;36.00;30.00;;;;;9.14;88.49;99706.19;6310518;20;2848763;-54
2022/04/16 03:40:34;;;;;;;;;29.50;25.50;;;;;9.12;88.93;99705.38;6276778;20;2500243;-52
2022/04/16 03:43:03;;;;;;;;;31.00;28.50;;;;;9.08;89.32;99709.16;6281719;20;2854438;-53
2022/04/16 03:45:37;;;;;;;;;31.00;26.00;;;;;9.52;87.35;99711.19;6281615;20;2837924;-54
2022/04/16 03:48:07;;;;;;;;;28.50;21.00;;;;;9.48;86.76;99714.97;6279710;20;2853376;-51
2022/04/16 03:50:37;;;;;;;;;33.00;28.50;;;;;9.59;86.24;99705.38;6278642;20;2850435;-51
2022/04/16 03:53:06;;;;;;;;;29.33;26.67;;;;;9.56;86.58;99705.56;6281665;20;2858588;-55
2022/04/16 04:01:10;;;;;;;;;28.00;26.50;;;;;9.52;86.43;99711.19;6279485;20;2845189;-54
2022/04/16 04:03:37;;;;;;;;;33.00;27.00;;;;;9.71;85.65;99711.00;6276734;20;2500352;-50
2022/04/16 04:06:07;;;;;;;;;38.00;29.50;;;;;9.47;86.20;99707.91;6280880;20;2845029;-51
2022/04/16 04:08:37;;;;;;;;;32.00;28.00;;;;;9.39;86.60;99706.50;6280213;20;2851381;-52
2022/04/16 04:11:06;;;;;;;;;32.00;30.00;;;;;9.42;86.86;99709.00;6311756;20;2839833;-52
2022/04/16 04:13:34;;;;;;;;;36.00;30.50;;;;;9.53;85.92;99707.53;6281120;20;2861708;-53
2022/04/16 04:16:04;;;;;;;;;36.00;31.00;;;;;9.62;86.20;99709.72;6280165;20;2851391;-52
2022/04/16 04:18:36;;;;;;;;;34.67;28.00;;;;;9.52;86.17;99705.81;6279119;20;2857576;-52
2022/04/16 04:21:05;;;;;;;;;38.67;30.00;;;;;9.43;87.00;99707.22;6313966;20;3610629;-52
2022/04/16 04:23:34;;;;;;;;;29.50;26.50;;;;;9.58;85.96;99708.16;6277300;20;2844029;-51
2022/04/16 04:26:03;;;;;;;;;33.00;29.00;;;;;9.65;86.20;99701.50;6278302;20;2852541;-53
2022/04/16 04:28:32;;;;;;;;;34.00;29.00;;;;;9.66;85.98;99705.88;6279462;20;2848220;-52
2022/04/16 04:31:00;;;;;;;;;32.50;29.50;;;;;9.71;85.74;99717.22;6281065;20;2845072;-54
2022/04/16 04:33:29;;;;;;;;;31.00;27.00;;;;;9.89;85.03;99718.81;6281068;20;2853375;-51
2022/04/16 04:35:59;;;;;;;;;31.33;29.67;;;;;9.82;84.89;99714.78;6278227;20;2860706;-54
2022/04/16 04:38:27;;;;;;;;;34.00;32.67;;;;;9.90;84.97;99727.75;6314761;20;3584719;-55
2022/04/16 04:40:58;;;;;;;;;41.33;34.00;;;;;9.78;84.97;99726.63;6272741;20;3615914;-54
2022/04/16 04:43:28;;;;;;;;;36.00;29.00;;;;;9.97;84.69;99722.88;6309442;20;2856591;-53
2022/04/16 04:45:57;;;;;;;;;32.50;28.00;;;;;10.10;83.41;99730.13;6310929;20;2843974;-54
2022/04/16 04:48:25;;;;;;;;;28.00;28.00;;;;;9.97;84.05;99722.88;6280649;20;2843095;-54
2022/04/16 04:50:53;;;;;;;;;25.50;22.50;;;;;9.98;84.05;99730.84;6277802;20;2500246;-53
2022/04/16 04:53:25;;;;;;;;;28.33;24.00;;;;;10.17;83.80;99725.28;6278545;20;2847415;-53
2022/04/16 04:55:53;;;;;;;;;30.50;27.00;;;;;10.05;83.74;99734.03;6311150;20;2840973;-56
2022/04/16 04:58:22;;;;;;;;;29.50;29.00;;;;;10.02;83.61;99736.91;6277831;20;2849346;-58
2022/04/16 05:00:52;;;;;;;;;36.67;30.67;;;;;10.08;83.35;99736.53;6279287;20;3606892;-56
2022/04/16 05:03:20;;;;;;;;;27.00;25.50;;;;;10.04;83.48;99751.09;6309825;20;2857533;-58
2022/04/16 05:05:49;;;;;;;;;33.50;30.50;;;;;10.20;83.50;99740.31;6279965;20;2856595;-57
2022/04/16 05:08:18;;;;;;;;;30.00;25.00;;;;;10.43;81.92;99747.03;6277052;20;2840086;-58
2022/04/16 05:10:47;;;;;;;;;28.00;28.00;;;;;10.44;81.73;99751.44;6278036;20;2852468;-57
2022/04/16 05:13:16;;;;;;;;;41.33;31.00;;;;;10.47;81.36;99743.19;6279190;20;3641878;-57
2022/04/16 05:15:46;;;;;;;;;33.33;29.67;;;;;10.62;81.14;99750.34;6310033;20;2848154;-57
2022/04/16 05:18:16;;;;;;;;;35.00;30.00;;;;;10.70;81.08;99750.72;6310068;20;2855617;-58
2022/04/16 05:20:45;;;;;;;;;25.00;24.67;;;;;10.58;81.57;99748.78;6306922;20;2850345;-58
2022/04/16 05:23:14;;;;;;;;;28.00;25.50;;;;;10.56;81.88;99753.41;6310043;20;2838875;-57
2022/04/16 05:25:43;;;;;;;;;30.00;26.33;;;;;10.83;81.39;99761.59;6278734;20;2844091;-56
2022/04/16 05:28:12;;;;;;;;;29.50;25.50;;;;;10.71;80.56;99757.81;6313401;20;2854447;-58
2022/04/16 05:30:54;;;;;;;;;29.00;25.50;;;;;10.74;80.70;99759.44;6282037;20;2849276;-56
2022/04/16 05:36:10;;;;;;;;;25.00;21.00;;;;;11.05;79.51;99766.47;6283639;20;2500252;-58
2022/04/16 05:38:38;;;;;;;;;23.00;22.00;;;;;11.16;78.52;99760.44;6284023;20;2491942;-57
2022/04/16 05:41:05;;;;;;;;;19.00;17.00;;;;;11.05;78.29;99771.84;6282495;20;2813771;-59
2022/04/16 05:43:33;;;;;;;;;18.50;16.00;;;;;11.10;77.80;99771.56;6282545;20;2823209;-56
2022/04/16 05:46:02;;;;;;;;;17.50;16.50;;;;;10.88;78.23;99770.22;6276619;20;2834552;-58
2022/04/16 05:48:30;;;;;;;;;20.00;19.00;;;;;11.16;78.08;99784.63;6282857;20;2827479;-56
2022/04/16 05:50:58;;;;;;;;;18.50;17.00;;;;;10.97;78.23;99790.28;6279662;20;2491919;-58
2022/04/16 05:53:26;;;;;;;;;12.00;12.00;;;;;10.70;78.08;99787.47;6282913;20;2789864;-58
2022/04/16 05:55:54;;;;;;;;;22.50;19.00;;;;;10.78;79.42;99798.59;6282638;20;2827507;-55
2022/04/16 05:58:22;;;;;;;;;15.00;15.00;;;;;10.84;79.03;99800.03;6285017;20;2820170;-58
2022/04/16 06:00:51;;;;;;;;;14.67;13.67;;;;;10.79;78.64;99803.00;6282512;20;3542034;-54
2022/04/16 06:03:22;;;;;;;;;11.50;9.00;;;;;10.80;78.22;99809.25;6337734;20;2641947;-56
2022/04/16 06:05:52;;;;;;;;;11.00;9.00;;;;;10.77;78.77;99816.53;6313185;20;2774285;-58
2022/04/16 06:08:21;;;;;;;;;13.00;11.20;;;;;10.76;78.01;99822.00;6305832;20;2789891;-58
2022/04/16 06:10:49;;;;;;;;;5.50;5.50;;;;;10.52;78.87;99818.97;6286701;20;2747306;-58
2022/04/16 06:13:17;;;;;;;;;6.50;5.50;;;;;10.23;79.22;99826.00;6283106;20;2741926;-58
2022/04/16 06:15:46;;;;;;;;;18.00;15.50;;;;;10.42;79.36;99823.13;6284069;20;2823298;-58
2022/04/16 06:18:15;;;;;;;;;40.67;32.00;;;;;10.44;78.58;99818.53;6283342;20;2864839;-58
2022/04/16 06:20:45;;;;;;;;;31.67;26.67;;;;;10.48;78.23;99820.13;6313706;20;2860785;-58
2022/04/16 06:23:14;;;;;;;;;12.80;10.20;;;;;10.83;76.64;99822.50;6340080;20;2773292;-57
2022/04/16 06:25:42;;;;;;;;;2.00;2.00;;;;;10.94;75.34;99822.72;6288025;20;2741950;-57
2022/04/16 06:28:10;;;;;;;;;3.00;1.00;;;;;10.84;74.82;99827.75;6300737;20;1807723;-56
2022/04/16 06:30:39;;;;;;;;;2.50;1.50;;;;;11.00;74.19;99833.06;6330678;20;1810937;-56
2022/04/16 06:33:06;;;;;;;;;9.00;9.00;;;;;11.45;73.86;99843.75;6318024;20;2751315;-56
2022/04/16 06:35:34;;;;;;;;;3.00;3.00;;;;;10.98;75.08;99843.06;6286609;20;2746140;-57
2022/04/16 06:38:03;;;;;;;;;58.00;47.00;;;;;10.86;76.16;99846.47;6277616;20;2862922;-59
2022/04/16 06:40:31;;;;;;;;;2.00;2.00;;;;;10.93;75.10;99847.84;6282330;20;2740314;-58
2022/04/16 06:43:00;;;;;;;;;1.00;1.00;;;;;11.14;76.20;99851.06;6300953;20;1809783;-57
2022/04/16 06:45:28;;;;;;;;;0.00;0.00;;;;;11.24;74.97;99862.94;6335002;20;1801437;-57
2022/04/16 06:47:56;;;;;;;;;2.50;2.50;;;;;11.15;74.61;99855.47;6313370;20;2746125;-57
2022/04/16 06:50:24;;;;;;;;;2.00;1.00;;;;;11.34;73.80;99863.25;6285261;20;2722312;-58
2022/04/16 06:52:56;;;;;;;;;1.50;1.00;;;;;11.26;74.33;99861.03;6301516;20;1798768;-58
2022/04/16 06:55:24;;;;;;;;;3.00;3.00;;;;;11.07;75.13;99861.31;6316758;20;2739909;-56
2022/04/16 06:57:53;;;;;;;;;1.00;1.00;;;;;10.74;75.12;99864.19;6299160;20;1804527;-55
2022/04/16 07:00:24;;;;;;;;;0.00;0.00;;;;;11.26;74.80;99868.25;6331368;20;1807726;-56
2022/04/16 07:02:52;;;;;;;;;6.00;6.00;;;;;11.04;74.81;99866.88;6322142;20;2760247;-54
2022/04/16 07:05:24;;;;;;;;;19.50;17.50;;;;;11.20;74.16;99866.78;6280021;20;2841983;-53
2022/04/16 07:07:53;;;;;;;;;2.00;0.75;;;;;11.46;72.91;99867.88;6301342;20;1811801;-58
2022/04/16 07:10:22;;;;;;;;;1.00;0.00;;;;;11.30;73.09;99875.16;6328910;20;1805600;-53
2022/04/16 07:12:50;;;;;;;;;1.00;1.00;;;;;10.84;75.33;99877.94;6334192;20;1804182;-57
2022/04/16 07:15:18;;;;;;;;;20.00;14.00;;;;;11.26;74.35;99879.00;6315292;20;2817030;-57
2022/04/16 07:17:46;;;;;;;;;1.00;0.50;;;;;11.25;74.59;99885.34;6285280;20;2733602;-56
2022/04/16 07:20:14;;;;;;;;;4.00;3.00;;;;;11.44;73.50;99888.59;6282046;20;2744066;-55
2022/04/16 07:22:43;;;;;;;;;12.00;12.00;;;;;11.24;74.69;99888.97;6305195;20;2794060;-56
2022/04/16 07:25:11;;;;;;;;;5.00;4.00;;;;;11.50;74.50;99896.28;6284121;20;2752382;-56
2022/04/16 07:27:39;;;;;;;;;14.00;13.00;;;;;11.13;74.57;99893.16;6279615;20;2788833;-57
2022/04/16 07:30:09;;;;;;;;;3.50;2.25;;;;;11.14;75.95;99902.97;6298530;20;1816047;-56
2022/04/16 07:32:43;;;;;;;;;1.50;1.50;;;;;11.02;75.46;99902.84;6332722;20;1806606;-57
2022/04/16 07:35:12;;;;;;;;;17.33;16.67;;;;;11.18;75.83;99917.09;6311420;20;3558692;-55
2022/04/16 07:37:48;;;;;;;;;7.00;5.50;;;;;11.15;74.97;99920.81;6280839;20;2748324;-58
2022/04/16 07:40:16;;;;;;;;;4.00;3.00;;;;;11.13;75.51;99919.19;6283508;20;2742990;-55
2022/04/16 07:42:44;;;;;;;;;1.50;1.50;;;;;10.79;75.40;99920.31;6299425;20;1804539;-55
2022/04/16 07:45:16;;;;;;;;;1.00;1.00;;;;;10.76;75.88;99919.53;6330658;20;1799344;-57
2022/04/16 07:47:45;;;;;;;;;3.00;1.00;;;;;10.39;77.29;99925.31;6330987;20;1807745;-57
2022/04/16 07:50:14;;;;;;;;;1.00;1.00;;;;;10.57;76.25;99928.78;6326608;20;1808767;-55
2022/04/16 07:52:44;;;;;;;;;1.50;1.50;;;;;10.52;76.99;99934.41;6317181;20;2729538;-56
2022/04/16 07:55:16;;;;;;;;;2.25;2.25;;;;;10.82;76.64;99936.25;6300261;20;1809863;-54
2022/04/16 07:57:44;;;;;;;;;8.00;8.00;;;;;11.40;75.71;99938.13;6316216;20;2752387;-57
2022/04/16 08:00:13;;;;;;;;;4.00;2.50;;;;;11.58;73.99;99934.31;6279273;20;2754473;-57
2022/04/16 08:02:41;;;;;;;;;1.00;1.00;;;;;11.65;71.14;99933.00;6300053;20;1802448;-57
2022/04/16 08:05:10;;;;;;;;;2.75;1.00;;;;;11.81;71.42;99938.28;6331190;20;1805595;-57
2022/04/16 08:07:39;;;;;;;;;0.00;0.00;;;;;11.72;71.82;99935.31;6333567;20;1803547;-56
2022/04/16 08:10:09;;;;;;;;;1.00;1.00;;;;;11.85;71.40;99938.97;6330977;20;1807045;-51
2022/04/16 08:12:38;;;;;;;;;2.00;2.00;;;;;11.74;71.74;99938.75;6330488;20;1803514;-59
2022/04/16 08:15:09;;;;;;;;;1.00;1.00;;;;;11.99;71.30;99936.28;6332981;20;1805286;-60
2022/04/16 08:17:37;;;;;;;;;1.50;1.00;;;;;12.39;69.75;99933.72;6315111;20;2732726;-57
2022/04/16 08:20:08;;;;;;;;;1.50;1.50;;;;;12.08;70.43;99930.34;6282103;20;2736781;-60
2022/04/16 08:22:38;;;;;;;;;1.00;1.00;;;;;12.49;70.08;99928.59;6280745;20;2735834;-60
2022/04/16 08:27:48;;;;;;;;;0.75;0.75;;;;;11.94;70.93;99922.25;6330549;20;1803455;-60
2022/04/16 08:30:18;;;;;;;;;2.00;2.00;;;;;12.84;68.39;99928.09;6311690;20;2746084;-60
2022/04/16 08:32:47;;;;;;;;;24.00;23.67;;;;;13.04;67.40;99924.06;6283853;20;3579464;-60
2022/04/16 08:35:17;;;;;;;;;63.00;49.67;;;;;12.49;69.69;99917.84;6275749;20;3605470;-58
2022/04/16 08:37:47;;;;;;;;;3.50;2.00;;;;;12.90;67.87;99923.16;6285500;20;2750369;-58
2022/04/16 08:40:20;;;;;;;;;7.00;6.00;;;;;13.70;67.09;99916.81;6279534;20;2731623;-58
2022/04/16 08:42:49;;;;;;;;;10.67;9.00;;;;;13.68;66.04;99911.50;6268992;20;3494123;-58
2022/04/16 08:45:17;;;;;;;;;4.00;3.00;;;;;14.07;64.35;99916.88;6311001;20;2743011;-59
2022/04/16 08:47:45;;;;;;;;;6.00;6.00;;;;;14.46;63.68;99922.06;6282587;20;2740010;-59
2022/04/16 08:50:14;;;;;;;;;3.00;3.00;;;;;14.32;64.33;99924.03;6281448;20;2736917;-59
2022/04/16 08:52:42;;;;;;;;;3.00;3.00;;;;;14.42;63.52;99933.19;6282363;20;2739955;-59
2022/04/16 08:55:12;;;;;;;;;2.00;2.00;;;;;13.63;65.33;99924.47;6281153;20;2756539;-59
2022/04/16 08:57:41;;;;;;;;;3.00;3.00;;;;;13.65;66.46;99933.31;6281414;20;2737803;-59
2022/04/16 09:00:14;;;;;;;;;2.50;2.50;;;;;13.48;68.00;99936.31;6279475;20;2756508;-59
2022/04/16 09:02:58;;;;;;;;;2.00;2.00;;;;;13.56;67.28;99929.44;6284689;20;2754472;-59
2022/04/16 09:05:28;;;;;;;;;2.00;2.00;;;;;13.83;66.18;99928.47;6285283;20;2739873;-59
2022/04/16 09:07:59;;;;;;;;;3.00;3.00;;;;;14.01;65.72;99923.59;6285100;20;2744163;-59
2022/04/16 09:10:31;;;;;;;;;5.00;3.50;;;;;14.15;65.98;99930.69;6289522;20;2735788;-59
2022/04/16 09:13:02;;;;;;;;;2.00;2.00;;;;;14.37;65.65;99928.13;6284579;20;2744070;-60
2022/04/16 09:15:34;;;;;;;;;3.50;3.50;;;;;14.46;64.64;99937.41;6287611;20;2740873;-58
2022/04/16 09:18:07;;;;;;;;;2.00;2.00;;;;;14.40;63.80;99938.72;6287030;20;2755612;-59
2022/04/16 09:20:38;;;;;;;;;3.00;3.00;;;;;14.19;65.96;99941.16;6286264;20;2750330;-59
2022/04/16 09:23:22;;;;;;;;;10.00;7.33;;;;;13.28;66.25;99937.72;6282039;20;2757670;-59
2022/04/16 09:25:52;;;;;;;;;40.33;33.33;;;;;12.84;66.18;99941.56;6313320;20;3598228;-59
2022/04/16 09:28:22;;;;;;;;;6.00;6.00;;;;;13.40;67.91;99939.56;6284692;20;2742340;-61
2022/04/16 09:30:56;;;;;;;;;4.50;3.00;;;;;13.91;66.33;99946.81;6288134;20;2748166;-51
2022/04/16 09:33:25;;;;;;;;;2.50;2.50;;;;;14.01;65.38;99948.75;6287110;20;2755680;-55
2022/04/16 09:35:55;;;;;;;;;2.00;2.00;;;;;14.02;64.52;99955.00;6287296;20;2748392;-48
2022/04/16 09:38:27;;;;;;;;;4.00;3.00;;;;;14.27;64.19;99949.56;6287212;20;2735853;-49
2022/04/16 09:40:57;;;;;;;;;2.50;2.50;;;;;14.21;64.50;99950.00;6300991;20;1806695;-49
2022/04/16 09:43:36;;;;;;;;;3.00;3.00;;;;;14.71;61.74;99956.25;6312969;20;2744066;-50
2022/04/16 09:46:12;;;;;;;;;4.00;4.00;;;;;14.70;60.64;99945.56;6283329;20;2738836;-47
2022/04/16 09:48:40;;;;;;;;;7.00;4.50;;;;;14.99;61.82;99951.50;6287383;20;2756519;-47
2022/04/16 09:51:08;;;;;;;;;3.00;2.00;;;;;15.01;60.34;99949.53;6288060;20;2754428;-47
2022/04/16 09:53:37;;;;;;;;;3.00;3.00;;;;;15.03;58.56;99947.56;6284686;20;2746294;-49
2022/04/16 09:56:11;;;;;;;;;5.00;3.00;;;;;15.28;58.28;99951.13;6284265;20;2740961;-47
2022/04/16 09:58:44;;;;;;;;;6.00;6.00;;;;;16.00;57.78;99951.75;6285726;20;2744119;-52
2022/04/16 10:01:13;;;;;;;;;3.00;3.00;;;;;16.08;56.29;99950.28;6284034;20;2753617;-48
2022/04/16 10:03:43;;;;;;;;;20.67;20.67;;;;;16.60;55.72;99956.88;6283710;20;3578347;-49
2022/04/16 10:06:13;;;;;;;;;6.00;3.50;;;;;16.29;55.28;99942.28;6283984;20;2754713;-48
2022/04/16 10:08:41;;;;;;;;;5.50;5.50;;;;;15.31;58.93;99951.72;6283511;20;2749268;-51
2022/04/16 10:11:19;;;;;;;;;5.00;4.00;;;;;15.62;57.92;99951.22;6288320;20;2748204;-52
2022/04/16 10:14:03;;;;;;;;;7.00;7.00;;;;;15.32;57.59;99952.59;6283255;20;2748324;-49
2022/04/16 10:16:50;;;;;;;;;14.67;12.00;;;;;15.19;58.42;99949.94;6281867;20;3515968;-52
2022/04/16 10:19:18;;;;;;;;;4.00;2.00;;;;;15.22;56.57;99948.84;6315785;20;2755463;-47
2022/04/16 10:21:46;;;;;;;;;4.00;4.00;;;;;14.96;57.02;99940.91;6283950;20;2752387;-49
2022/04/16 10:24:26;;;;;;;;;4.50;3.00;;;;;14.79;57.39;99949.41;6286842;20;2752379;-50
2022/04/16 10:27:04;;;;;;;;;4.00;4.00;;;;;15.21;57.59;99957.97;6287208;20;2748271;-50
2022/04/16 10:29:38;;;;;;;;;3.00;3.00;;;;;15.17;56.37;99960.06;6279964;20;2751307;-52
2022/04/16 10:32:16;;;;;;;;;5.00;5.00;;;;;14.50;57.46;99950.56;6287129;20;2756723;-52
2022/04/16 10:34:46;;;;;;;;;3.00;3.00;;;;;14.52;59.18;99953.16;6286822;20;2734716;-49
2022/04/16 10:37:24;;;;;;;;;4.00;4.00;;;;;14.85;57.71;99954.34;6284989;20;2754522;-52
2022/04/16 10:39:53;;;;;;;;;5.50;4.50;;;;;15.08;57.02;99955.31;6286582;20;2750265;-49
2022/04/16 10:42:32;;;;;;;;;4.00;4.00;;;;;14.55;57.55;99944.84;6284927;20;2751425;-50
2022/04/16 10:45:19;;;;;;;;;4.00;4.00;;;;;14.68;56.36;99947.50;6286801;20;2756509;-52
2022/04/16 10:47:51;;;;;;;;;34.67;33.67;;;;;14.69;58.23;99942.00;6284206;20;3595066;-49
2022/04/16 10:50:23;;;;;;;;;53.00;42.00;;;;;14.93;57.13;99946.56;6277292;20;3607578;-49
2022/04/16 10:53:03;;;;;;;;;5.50;4.00;;;;;15.21;56.60;99939.88;6315499;20;2749249;-48
2022/04/16 10:55:31;;;;;;;;;4.00;4.00;;;;;15.66;55.70;99939.13;6284815;20;2756610;-48
2022/04/16 10:58:08;;;;;;;;;4.50;4.50;;;;;15.92;54.53;99939.81;6286987;20;2748614;-48
2022/04/16 11:00:46;;;;;;;;;4.00;4.00;;;;;15.94;54.46;99938.72;6282597;20;2755506;-48
2022/04/16 11:03:30;;;;;;;;;8.00;5.00;;;;;15.37;55.96;99934.16;6286388;20;2752497;-49
2022/04/16 11:06:07;;;;;;;;;5.00;5.00;;;;;16.22;54.38;99939.22;6287463;20;2730613;-51
2022/04/16 11:08:39;;;;;;;;;66.67;52.67;;;;;15.53;55.10;99934.72;6279563;20;3622173;-48
2022/04/16 11:11:09;;;;;;;;;5.00;5.00;;;;;15.80;54.49;99937.09;6285846;20;2747131;-49
2022/04/16 11:13:40;;;;;;;;;5.00;5.00;;;;;15.97;54.46;99943.88;6286302;20;2747133;-49
2022/04/16 11:16:09;;;;;;;;;6.00;4.00;;;;;15.90;54.56;99939.91;6283070;20;2753370;-48
2022/04/16 11:18:47;;;;;;;;;5.00;5.00;;;;;15.68;54.18;99931.75;6284457;20;2752409;-49
2022/04/16 11:21:23;;;;;;;;;8.00;6.00;;;;;16.11;55.66;99934.63;6282024;20;2742726;-48
2022/04/16 11:23:54;;;;;;;;;10.40;9.60;;;;;16.27;54.09;99931.53;6302258;20;2770066;-50
2022/04/16 11:34:58;;;;;;;;;4.00;4.00;;;;;16.72;51.57;99923.34;6282059;20;2756600;-47
2022/04/16 11:37:32;;;;;;;;;4.50;4.00;;;;;16.36;52.42;99927.25;6285986;20;2752366;-49
2022/04/16 11:40:07;;;;;;;;;7.00;5.00;;;;;16.63;52.83;99929.50;6280591;20;2747226;-52
2022/04/16 11:42:35;;;;;;;;;5.00;5.00;;;;;16.76;51.29;99929.34;6286172;20;2744029;-48
2022/04/16 11:45:08;;;;;;;;;4.00;4.00;;;;;16.52;51.83;99929.56;6282004;20;2743015;-54
2022/04/16 11:47:37;;;;;;;;;5.00;5.00;;;;;16.36;50.61;99928.09;6282398;20;2742048;-53